Time,TemperatureF,DewpointF,PressureIn,WindDirection,WindDirectionDegrees,WindSpeedMPH,WindSpeedGustMPH,Humidity,HourlyPrecipIn,Conditions,Clouds,dailyrainin,SolarRadiationWatts/m^2,SoftwareType,DateUTC
2015-07-04 00:00:00,80.3,77.4,29.92,SSE,150,12.7,12.7,91,0.00,CLR,SKC,0.00,0.0,WeatherDisplay:10.37,2015-07-04 05:00:00,
2015-07-04 00:05:00,80.3,77.8,29.92,SSW,207,9.0,9.0,92,0.00,CLR,SKC,0.00,0.0,WeatherDisplay:10.37,2015-07-04 05:05:00,
2015-07-04 00:10:00,80.4,77.9,29.92,SSE,167,12.7,12.7,92,0.00,CLR,SKC,0.00,0.0,WeatherDisplay:10.37,2015-07-04 05:10:00,
2015-07-04 00:15:00,80.4,77.5,29.92,South,182,13.0,13.0,91,0.00,CLR,SKC,0.00,0.0,WeatherDisplay:10.37,2015-07-04 05:15:00,
2015-07-04 00:20:00,80.3,77.8,29.92,South,169,11.5,11.5,92,0.00,CLR,SKC,0.00,0.0,WeatherDisplay:10.37,2015-07-04 05:20:00,
2015-07-04 00:25:00,80.3,77.4,29.93,South,190,6.9,6.9,91,0.00,CLR,SKC,0.00,0.0,WeatherDisplay:10.37,2015-07-04 05:25:00,
2015-07-04 00:30:00,80.3,77.4,29.93,SW,221,11.5,11.5,91,0.00,CLR,SKC,0.00,0.0,WeatherDisplay:10.37,2015-07-04 05:30:00,
2015-07-04 00:35:00,80.3,77.4,29.93,South,179,12.7,12.7,91,0.00,CLR,SKC,0.00,0.0,WeatherDisplay:10.37,2015-07-04 05:35:00,
2015-07-04 00:40:00,80.3,77.4,29.92,South,188,14.0,14.0,91,0.00,CLR,SKC,0.00,0.0,WeatherDisplay:10.37,2015-07-04 05:40:00,
2015-07-04 00:45:00,80.3,77.4,29.92,SSW,194,15.0,15.0,91,0.00,CLR,SKC,0.00,0.0,WeatherDisplay:10.37,2015-07-04 05:45:00,
2015-07-04 00:50:00,80.3,77.4,29.92,SSW,203,6.9,6.9,91,0.00,CLR,SKC,0.00,0.0,WeatherDisplay:10.37,2015-07-04 05:50:00,
2015-07-04 00:55:00,80.3,77.4,29.92,SSE,167,11.5,11.5,91,0.00,CLR,SKC,0.00,0.0,WeatherDisplay:10.37,2015-07-04 05:55:00,
2015-07-04 01:00:00,80.3,77.4,29.92,SSW,207,13.8,13.8,91,0.00,CLR,SKC,0.00,0.0,WeatherDisplay:10.37,2015-07-04 06:00:00,
2015-07-04 01:05:00,80.3,77.4,29.92,South,182,13.8,13.8,91,0.00,CLR,SKC,0.00,0.0,WeatherDisplay:10.37,2015-07-04 06:05:00,
2015-07-04 01:10:00,80.3,77.4,29.92,SW,234,11.5,11.5,91,0.00,CLR,SKC,0.00,0.0,WeatherDisplay:10.37,2015-07-04 06:10:00,
2015-07-04 01:15:00,80.2,77.3,29.92,SSW,197,11.5,11.5,91,0.00,CLR,SKC,0.00,0.0,WeatherDisplay:10.37,2015-07-04 06:15:00,
2015-07-04 01:20:00,80.2,77.7,29.92,South,190,12.7,12.7,92,0.00,CLR,SKC,0.00,0.0,WeatherDisplay:10.37,2015-07-04 06:20:00,
2015-07-04 01:25:00,80.1,77.6,29.92,South,191,15.0,15.0,92,0.00,CLR,SKC,0.00,0.0,WeatherDisplay:10.37,2015-07-04 06:25:00,
2015-07-04 01:30:00,80.1,77.6,29.92,SSW,198,5.8,5.8,92,0.00,CLR,SKC,0.00,0.0,WeatherDisplay:10.37,2015-07-04 06:30:00,
2015-07-04 01:35:00,80.1,77.6,29.92,SSW,193,10.4,10.4,92,0.00,CLR,SKC,0.00,0.0,WeatherDisplay:10.37,2015-07-04 06:35:00,
2015-07-04 01:40:00,80.1,77.6,29.92,South,180,11.5,11.5,92,0.00,CLR,SKC,0.00,0.0,WeatherDisplay:10.37,2015-07-04 06:40:00,
2015-07-04 01:45:00,80.1,77.6,29.92,SSW,196,11.5,11.5,92,0.00,CLR,SKC,0.00,0.0,WeatherDisplay:10.37,2015-07-04 06:45:00,
2015-07-04 01:50:00,80.0,77.5,29.92,SSW,211,12.7,12.7,92,0.00,CLR,SKC,0.00,0.0,WeatherDisplay:10.37,2015-07-04 06:50:00,
2015-07-04 01:55:00,80.0,77.5,29.91,South,190,13.0,13.0,92,0.00,CLR,SKC,0.00,0.0,WeatherDisplay:10.37,2015-07-04 06:55:00,
2015-07-04 02:00:00,80.0,77.5,29.91,SSE,162,10.4,10.4,92,0.00,CLR,SKC,0.00,0.0,WeatherDisplay:10.37,2015-07-04 07:00:00,
2015-07-04 02:05:00,80.0,77.5,29.91,South,186,10.4,10.4,92,0.00,CLR,SKC,0.00,0.0,WeatherDisplay:10.37,2015-07-04 07:05:00,
2015-07-04 02:10:00,79.9,77.4,29.91,SW,214,10.4,10.4,92,0.00,CLR,SKC,0.00,0.0,WeatherDisplay:10.37,2015-07-04 07:10:00,
2015-07-04 02:15:00,79.8,77.6,29.91,South,170,12.7,12.7,93,0.00,CLR,SKC,0.00,0.0,WeatherDisplay:10.37,2015-07-04 07:15:00,
2015-07-04 02:25:00,79.7,77.5,29.91,South,178,10.4,10.4,93,0.00,CLR,SKC,0.00,0.0,WeatherDisplay:10.37,2015-07-04 07:25:00,
2015-07-04 02:30:00,79.7,77.5,29.91,SSE,161,12.7,12.7,93,0.00,CLR,SKC,0.00,0.0,WeatherDisplay:10.37,2015-07-04 07:30:00,
2015-07-04 02:35:00,79.6,77.4,29.91,South,190,13.0,13.0,93,0.00,CLR,SKC,0.00,0.0,WeatherDisplay:10.37,2015-07-04 07:35:00,
2015-07-04 02:40:00,79.7,77.5,29.91,South,174,9.2,9.2,93,0.00,CLR,SKC,0.00,0.0,WeatherDisplay:10.37,2015-07-04 07:40:00,
2015-07-04 02:45:00,79.6,77.4,29.91,SSE,161,9.2,9.2,93,0.00,CLR,SKC,0.00,0.0,WeatherDisplay:10.37,2015-07-04 07:45:00,
2015-07-04 02:50:00,79.6,77.4,29.91,SSE,162,10.0,10.0,93,0.00,CLR,SKC,0.00,0.0,WeatherDisplay:10.37,2015-07-04 07:50:00,
2015-07-04 02:55:00,79.6,77.4,29.90,SSE,166,11.5,11.5,93,0.00,CLR,SKC,0.00,0.0,WeatherDisplay:10.37,2015-07-04 07:55:00,
2015-07-04 03:00:00,79.6,77.4,29.90,South,169,11.5,11.5,93,0.00,CLR,SKC,0.00,0.0,WeatherDisplay:10.37,2015-07-04 08:00:00,
2015-07-04 03:05:00,79.6,77.4,29.90,South,180,9.2,9.2,93,0.00,CLR,SKC,0.00,0.0,WeatherDisplay:10.37,2015-07-04 08:05:00,
2015-07-04 03:10:00,79.7,77.5,29.90,South,173,11.5,11.5,93,0.00,CLR,SKC,0.00,0.0,WeatherDisplay:10.37,2015-07-04 08:10:00,
2015-07-04 03:15:00,79.8,77.6,29.90,South,188,11.5,11.5,93,0.00,CLR,SKC,0.00,0.0,WeatherDisplay:10.37,2015-07-04 08:15:00,
2015-07-04 03:20:00,79.7,77.5,29.90,South,185,11.5,11.5,93,0.00,CLR,SKC,0.00,0.0,WeatherDisplay:10.37,2015-07-04 08:20:00,
2015-07-04 03:25:00,79.8,77.6,29.91,South,172,11.5,11.5,93,0.00,CLR,SKC,0.00,0.0,WeatherDisplay:10.37,2015-07-04 08:25:00,
2015-07-04 03:30:00,79.8,77.6,29.91,South,186,13.0,13.0,93,0.00,CLR,SKC,0.00,0.0,WeatherDisplay:10.37,2015-07-04 08:30:00,
2015-07-04 03:35:00,79.8,77.6,29.91,South,170,9.2,9.2,93,0.00,CLR,SKC,0.00,0.0,WeatherDisplay:10.37,2015-07-04 08:35:00,
2015-07-04 03:40:00,79.8,77.6,29.91,South,179,10.4,10.4,93,0.00,CLR,SKC,0.00,0.0,WeatherDisplay:10.37,2015-07-04 08:40:00,
2015-07-04 03:45:00,79.9,77.7,29.91,SSW,210,11.5,11.5,93,0.00,CLR,SKC,0.00,0.0,WeatherDisplay:10.37,2015-07-04 08:45:00,
2015-07-04 03:50:00,79.9,77.7,29.91,South,182,9.2,9.2,93,0.00,CLR,SKC,0.00,0.0,WeatherDisplay:10.37,2015-07-04 08:50:00,
2015-07-04 03:55:00,79.9,77.7,29.91,SSE,163,10.4,10.4,93,0.00,CLR,SKC,0.00,0.0,WeatherDisplay:10.37,2015-07-04 08:55:00,
2015-07-04 04:00:00,79.9,77.7,29.91,SSW,212,9.2,9.2,93,0.00,CLR,SKC,0.00,0.0,WeatherDisplay:10.37,2015-07-04 09:00:00,
2015-07-04 04:05:00,79.9,77.7,29.91,South,191,11.0,11.0,93,0.00,CLR,SKC,0.00,0.0,WeatherDisplay:10.37,2015-07-04 09:05:00,
2015-07-04 04:10:00,79.9,77.7,29.91,South,180,9.2,9.2,93,0.00,CLR,SKC,0.00,0.0,WeatherDisplay:10.37,2015-07-04 09:10:00,
2015-07-04 04:15:00,79.8,77.3,29.91,SSE,167,12.7,12.7,92,0.00,CLR,SKC,0.00,0.0,WeatherDisplay:10.37,2015-07-04 09:15:00,
2015-07-04 04:20:00,79.8,77.3,29.91,SSW,192,14.0,14.0,92,0.00,CLR,SKC,0.00,0.0,WeatherDisplay:10.37,2015-07-04 09:20:00,
2015-07-04 04:25:00,79.8,77.3,29.91,South,184,17.3,17.3,92,0.00,CLR,SKC,0.00,0.0,WeatherDisplay:10.37,2015-07-04 09:25:00,
2015-07-04 04:30:00,79.9,77.4,29.91,South,186,15.0,15.0,92,0.00,CLR,SKC,0.00,0.0,WeatherDisplay:10.37,2015-07-04 09:30:00,
2015-07-04 04:35:00,79.8,77.3,29.91,South,175,11.5,11.5,92,0.00,CLR,SKC,0.00,0.0,WeatherDisplay:10.37,2015-07-04 09:35:00,
2015-07-04 04:40:00,79.8,77.3,29.91,South,186,10.4,10.4,92,0.00,CLR,SKC,0.00,0.0,WeatherDisplay:10.37,2015-07-04 09:40:00,
2015-07-04 04:45:00,79.8,77.3,29.91,South,180,12.0,12.0,92,0.00,CLR,SKC,0.00,0.0,WeatherDisplay:10.37,2015-07-04 09:45:00,
2015-07-04 04:50:00,79.8,77.3,29.91,SSW,192,11.5,11.5,92,0.00,CLR,SKC,0.00,0.0,WeatherDisplay:10.37,2015-07-04 09:50:00,
2015-07-04 04:55:00,79.8,77.3,29.91,SSE,162,11.5,11.5,92,0.00,CLR,SKC,0.00,0.0,WeatherDisplay:10.37,2015-07-04 09:55:00,
2015-07-04 05:00:00,79.8,77.3,29.91,South,172,12.0,12.0,92,0.00,CLR,SKC,0.00,0.0,WeatherDisplay:10.37,2015-07-04 10:00:00,
2015-07-04 05:05:00,79.8,77.3,29.91,South,174,11.5,11.5,92,0.00,CLR,SKC,0.00,0.0,WeatherDisplay:10.37,2015-07-04 10:05:00,
2015-07-04 05:10:00,79.8,77.3,29.91,South,173,9.2,9.2,92,0.00,CLR,SKC,0.00,0.0,WeatherDisplay:10.37,2015-07-04 10:10:00,
2015-07-04 05:15:00,79.8,77.3,29.91,South,183,9.2,9.2,92,0.00,CLR,SKC,0.00,0.0,WeatherDisplay:10.37,2015-07-04 10:15:00,
2015-07-04 05:20:00,79.7,77.2,29.91,South,177,11.5,11.5,92,0.00,CLR,SKC,0.00,0.0,WeatherDisplay:10.37,2015-07-04 10:20:00,
2015-07-04 05:25:00,79.7,77.2,29.91,South,176,9.2,9.2,92,0.00,CLR,SKC,0.00,0.0,WeatherDisplay:10.37,2015-07-04 10:25:00,
2015-07-04 05:35:00,79.7,77.2,29.91,South,174,11.5,11.5,92,0.00,CLR,SKC,0.00,0.0,WeatherDisplay:10.37,2015-07-04 10:35:00,
2015-07-04 05:40:00,79.6,77.4,29.91,South,190,12.7,12.7,93,0.00,CLR,SKC,0.00,0.0,WeatherDisplay:10.37,2015-07-04 10:40:00,
2015-07-04 05:45:00,79.6,77.4,29.91,SSW,206,9.2,9.2,93,0.00,CLR,SKC,0.00,0.0,WeatherDisplay:10.37,2015-07-04 10:45:00,
2015-07-04 05:50:00,79.6,77.4,29.91,South,171,10.4,10.4,93,0.00,CLR,SKC,0.00,0.0,WeatherDisplay:10.37,2015-07-04 10:50:00,
2015-07-04 05:55:00,79.6,77.4,29.92,South,185,11.5,11.5,93,0.00,CLR,SKC,0.00,0.0,WeatherDisplay:10.37,2015-07-04 10:55:00,
2015-07-04 06:00:00,79.6,77.4,29.92,South,171,10.4,10.4,93,0.00,CLR,SKC,0.00,0.0,WeatherDisplay:10.37,2015-07-04 11:00:00,
2015-07-04 06:05:00,79.6,77.4,29.92,South,175,10.4,10.4,93,0.00,CLR,SKC,0.00,0.0,WeatherDisplay:10.37,2015-07-04 11:05:00,
2015-07-04 06:10:00,79.6,77.4,29.92,South,169,11.5,11.5,93,0.00,CLR,SKC,0.00,0.0,WeatherDisplay:10.37,2015-07-04 11:10:00,
2015-07-04 06:15:00,79.6,77.4,29.92,SSE,165,11.5,11.5,93,0.00,CLR,SKC,0.00,0.0,WeatherDisplay:10.37,2015-07-04 11:15:00,
2015-07-04 06:20:00,79.6,77.4,29.92,South,173,10.0,10.0,93,0.00,CLR,SKC,0.00,0.0,WeatherDisplay:10.37,2015-07-04 11:20:00,
2015-07-04 06:25:00,79.6,77.4,29.92,South,169,12.7,12.7,93,0.00,CLR,SKC,0.00,0.0,WeatherDisplay:10.37,2015-07-04 11:25:00,
2015-07-04 06:30:00,79.6,77.4,29.92,South,169,10.4,10.4,93,0.00,CLR,SKC,0.00,0.0,WeatherDisplay:10.37,2015-07-04 11:30:00,
2015-07-04 06:35:00,79.6,77.4,29.92,SSE,166,10.4,10.4,93,0.00,CLR,SKC,0.00,0.0,WeatherDisplay:10.37,2015-07-04 11:35:00,
2015-07-04 06:40:00,79.6,77.4,29.92,South,169,11.5,11.5,93,0.00,CLR,SKC,0.00,5.0,WeatherDisplay:10.37,2015-07-04 11:40:00,
2015-07-04 06:45:00,79.6,77.4,29.92,SSE,162,5.8,5.8,93,0.00,CLR,SKC,0.00,9.0,WeatherDisplay:10.37,2015-07-04 11:45:00,
2015-07-04 06:50:00,79.6,77.4,29.92,South,171,6.9,6.9,93,0.00,CLR,SKC,0.00,23.0,WeatherDisplay:10.37,2015-07-04 11:50:00,
2015-07-04 06:55:00,79.7,77.5,29.93,South,181,7.0,7.0,93,0.00,CLR,SKC,0.00,53.0,WeatherDisplay:10.37,2015-07-04 11:55:00,
2015-07-04 07:00:00,79.9,77.7,29.93,SSW,207,11.5,11.5,93,0.00,CLR,SKC,0.00,26.0,WeatherDisplay:10.37,2015-07-04 12:00:00,
2015-07-04 07:05:00,79.8,77.3,29.93,SSW,213,7.0,7.0,92,0.00,CLR,SKC,0.00,28.0,WeatherDisplay:10.37,2015-07-04 12:05:00,
2015-07-04 07:10:00,79.7,77.5,29.93,SW,214,7.0,7.0,93,0.00,CLR,SKC,0.00,26.0,WeatherDisplay:10.37,2015-07-04 12:10:00,
2015-07-04 07:15:00,79.7,77.5,29.93,SSW,201,9.2,9.2,93,0.00,CLR,SKC,0.00,33.0,WeatherDisplay:10.37,2015-07-04 12:15:00,
2015-07-04 07:20:00,79.6,77.4,29.93,SSW,193,8.0,8.0,93,0.00,CLR,SKC,0.00,39.0,WeatherDisplay:10.37,2015-07-04 12:20:00,
2015-07-04 07:25:00,79.5,77.3,29.93,South,188,10.0,10.0,93,0.00,CLR,SKC,0.00,40.0,WeatherDisplay:10.37,2015-07-04 12:25:00,
2015-07-04 07:30:00,79.5,77.3,29.93,South,187,11.5,11.5,93,0.00,CLR,SKC,0.00,56.0,WeatherDisplay:10.37,2015-07-04 12:30:00,
2015-07-04 07:35:00,79.4,76.9,29.93,SSW,192,13.8,13.8,92,0.00,CLR,SKC,0.00,53.0,WeatherDisplay:10.37,2015-07-04 12:35:00,
2015-07-04 07:40:00,79.5,77.0,29.93,SSW,192,6.9,6.9,92,0.00,CLR,SKC,0.00,58.0,WeatherDisplay:10.37,2015-07-04 12:40:00,
2015-07-04 07:45:00,79.6,76.7,29.93,South,188,8.1,8.1,91,0.00,CLR,SKC,0.00,130.0,WeatherDisplay:10.37,2015-07-04 12:45:00,
2015-07-04 07:50:00,79.7,76.8,29.93,SW,219,11.5,11.5,91,0.00,CLR,SKC,0.00,149.0,WeatherDisplay:10.37,2015-07-04 12:50:00,
2015-07-04 07:55:00,79.9,76.7,29.93,South,188,8.1,8.1,90,0.00,CLR,SKC,0.00,158.0,WeatherDisplay:10.37,2015-07-04 12:55:00,
2015-07-04 08:00:00,79.9,76.7,29.93,SSW,194,11.5,11.5,90,0.00,CLR,SKC,0.00,77.0,WeatherDisplay:10.37,2015-07-04 13:00:00,
2015-07-04 08:05:00,80.0,76.8,29.93,SSW,193,11.0,11.0,90,0.00,CLR,SKC,0.00,188.0,WeatherDisplay:10.37,2015-07-04 13:05:00,
2015-07-04 08:10:00,80.2,76.7,29.93,SW,220,6.9,6.9,89,0.00,CLR,SKC,0.00,195.0,WeatherDisplay:10.37,2015-07-04 13:10:00,
2015-07-04 08:15:00,80.4,76.5,29.93,South,185,11.5,11.5,88,0.00,CLR,SKC,0.00,204.0,WeatherDisplay:10.37,2015-07-04 13:15:00,
2015-07-04 08:20:00,80.5,76.6,29.93,South,184,11.5,11.5,88,0.00,CLR,SKC,0.00,221.0,WeatherDisplay:10.37,2015-07-04 13:20:00,
2015-07-04 08:25:00,80.6,76.7,29.94,SSW,208,9.2,9.2,88,0.00,CLR,SKC,0.00,241.0,WeatherDisplay:10.37,2015-07-04 13:25:00,
2015-07-04 08:30:00,80.8,76.9,29.94,SSW,211,10.4,10.4,88,0.00,CLR,SKC,0.00,243.0,WeatherDisplay:10.37,2015-07-04 13:30:00,
2015-07-04 08:35:00,80.8,76.9,29.94,SSW,205,10.4,10.4,88,0.00,CLR,SKC,0.00,274.0,WeatherDisplay:10.37,2015-07-04 13:35:00,
2015-07-04 08:40:00,80.8,76.6,29.93,South,182,6.9,6.9,87,0.00,CLR,SKC,0.00,276.0,WeatherDisplay:10.37,2015-07-04 13:40:00,
2015-07-04 08:45:00,81.0,76.8,29.93,SSW,212,11.5,11.5,87,0.00,CLR,SKC,0.00,316.0,WeatherDisplay:10.37,2015-07-04 13:45:00,
2015-07-04 08:50:00,81.1,76.9,29.93,SSW,213,10.4,10.4,87,0.00,CLR,SKC,0.00,381.0,WeatherDisplay:10.37,2015-07-04 13:50:00,
2015-07-04 08:55:00,81.2,76.6,29.94,South,173,13.8,13.8,86,0.00,CLR,SKC,0.00,431.0,WeatherDisplay:10.37,2015-07-04 13:55:00,
2015-07-04 09:00:00,81.4,76.8,29.94,South,186,16.1,16.1,86,0.00,CLR,SKC,0.00,362.0,WeatherDisplay:10.37,2015-07-04 14:00:00,
2015-07-04 09:05:00,81.4,76.8,29.94,SSW,200,15.0,15.0,86,0.00,CLR,SKC,0.00,378.0,WeatherDisplay:10.37,2015-07-04 14:05:00,
2015-07-04 09:10:00,81.5,76.9,29.94,SSW,207,10.4,10.4,86,0.00,CLR,SKC,0.00,388.0,WeatherDisplay:10.37,2015-07-04 14:10:00,
2015-07-04 09:15:00,81.6,76.6,29.94,South,190,12.7,12.7,85,0.00,CLR,SKC,0.00,404.0,WeatherDisplay:10.37,2015-07-04 14:15:00,
2015-07-04 09:20:00,81.5,76.9,29.94,SSW,204,18.4,18.4,86,0.00,CLR,SKC,0.00,418.0,WeatherDisplay:10.37,2015-07-04 14:20:00,
2015-07-04 09:25:00,81.8,76.8,29.94,SSE,165,11.5,11.5,85,0.00,CLR,SKC,0.00,434.0,WeatherDisplay:10.37,2015-07-04 14:25:00,
2015-07-04 09:30:00,82.0,77.0,29.94,South,169,13.0,13.0,85,0.00,CLR,SKC,0.00,387.0,WeatherDisplay:10.37,2015-07-04 14:30:00,
2015-07-04 09:35:00,82.2,77.2,29.94,SSE,166,12.7,12.7,85,0.00,CLR,SKC,0.00,459.0,WeatherDisplay:10.37,2015-07-04 14:35:00,
2015-07-04 09:40:00,82.3,77.3,29.94,SSW,199,12.7,12.7,85,0.00,CLR,SKC,0.00,452.0,WeatherDisplay:10.37,2015-07-04 14:40:00,
2015-07-04 09:45:00,82.1,77.1,29.94,SSW,198,13.8,13.8,85,0.00,CLR,SKC,0.00,325.0,WeatherDisplay:10.37,2015-07-04 14:45:00,
2015-07-04 09:50:00,82.0,77.4,29.94,SSE,161,11.5,11.5,86,0.00,CLR,SKC,0.00,297.0,WeatherDisplay:10.37,2015-07-04 14:50:00,
2015-07-04 09:55:00,82.1,77.5,29.94,SSW,206,12.7,12.7,86,0.00,CLR,SKC,0.00,225.0,WeatherDisplay:10.37,2015-07-04 14:55:00,
2015-07-04 10:00:00,82.6,78.0,29.94,South,176,12.0,12.0,86,0.00,CLR,SKC,0.00,186.0,WeatherDisplay:10.37,2015-07-04 15:00:00,
2015-07-04 10:05:00,82.5,77.5,29.94,SSW,192,13.8,13.8,85,0.00,CLR,SKC,0.00,178.0,WeatherDisplay:10.37,2015-07-04 15:05:00,
2015-07-04 10:10:00,82.8,78.2,29.95,SSW,200,5.8,5.8,86,0.00,CLR,SKC,0.00,172.0,WeatherDisplay:10.37,2015-07-04 15:10:00,
2015-07-04 10:15:00,83.4,78.4,29.95,South,169,10.4,10.4,85,0.00,CLR,SKC,0.00,190.0,WeatherDisplay:10.37,2015-07-04 15:15:00,
2015-07-04 10:20:00,83.0,78.4,29.95,SSE,165,11.5,11.5,86,0.00,CLR,SKC,0.00,258.0,WeatherDisplay:10.37,2015-07-04 15:20:00,
2015-07-04 10:25:00,83.1,78.5,29.95,SSE,159,6.9,6.9,86,0.00,CLR,SKC,0.00,374.0,WeatherDisplay:10.37,2015-07-04 15:25:00,
2015-07-04 10:30:00,83.1,78.1,29.95,SSE,150,13.8,13.8,85,0.00,CLR,SKC,0.00,476.0,WeatherDisplay:10.37,2015-07-04 15:30:00,
2015-07-04 10:35:00,83.5,78.9,29.95,SSE,150,10.4,10.4,86,0.00,CLR,SKC,0.00,585.0,WeatherDisplay:10.37,2015-07-04 15:35:00,
2015-07-04 10:40:00,83.6,78.2,29.96,SSE,160,11.5,11.5,84,0.00,CLR,SKC,0.00,652.0,WeatherDisplay:10.37,2015-07-04 15:40:00,
2015-07-04 10:45:00,83.7,78.7,29.96,SSW,198,10.4,10.4,85,0.00,CLR,SKC,0.00,670.0,WeatherDisplay:10.37,2015-07-04 15:45:00,
2015-07-04 10:50:00,84.0,78.6,29.96,SSE,159,12.7,12.7,84,0.00,CLR,SKC,0.00,686.0,WeatherDisplay:10.37,2015-07-04 15:50:00,
2015-07-04 10:55:00,84.0,78.3,29.96,SE,136,13.8,13.8,83,0.00,CLR,SKC,0.00,705.0,WeatherDisplay:10.37,2015-07-04 15:55:00,
2015-07-04 11:00:00,84.0,78.6,29.96,SSE,153,15.0,15.0,84,0.00,CLR,SKC,0.00,707.0,WeatherDisplay:10.37,2015-07-04 16:00:00,
2015-07-04 11:05:00,84.1,78.7,29.96,SSE,158,13.8,13.8,84,0.00,CLR,SKC,0.00,719.0,WeatherDisplay:10.37,2015-07-04 16:05:00,
2015-07-04 11:10:00,84.1,78.7,29.96,South,175,16.1,16.1,84,0.00,CLR,SKC,0.00,731.0,WeatherDisplay:10.37,2015-07-04 16:10:00,
2015-07-04 11:15:00,84.2,78.5,29.96,SSE,156,18.4,18.4,83,0.00,CLR,SKC,0.00,744.0,WeatherDisplay:10.37,2015-07-04 16:15:00,
2015-07-04 11:20:00,83.8,78.1,29.96,South,183,15.0,15.0,83,0.00,CLR,SKC,0.00,765.0,WeatherDisplay:10.37,2015-07-04 16:20:00,
2015-07-04 11:25:00,84.2,78.5,29.96,South,181,16.1,16.1,83,0.00,CLR,SKC,0.00,784.0,WeatherDisplay:10.37,2015-07-04 16:25:00,
2015-07-04 11:30:00,84.7,79.0,29.96,South,182,12.7,12.7,83,0.00,CLR,SKC,0.00,775.0,WeatherDisplay:10.37,2015-07-04 16:30:00,
2015-07-04 11:35:00,84.8,78.7,29.96,South,173,24.2,24.2,82,0.00,CLR,SKC,0.00,731.0,WeatherDisplay:10.37,2015-07-04 16:35:00,
2015-07-04 11:40:00,84.2,78.5,29.96,South,169,17.3,17.3,83,0.00,CLR,SKC,0.00,691.0,WeatherDisplay:10.37,2015-07-04 16:40:00,
2015-07-04 11:45:00,84.6,78.9,29.96,SSE,156,15.0,15.0,83,0.00,CLR,SKC,0.00,427.0,WeatherDisplay:10.37,2015-07-04 16:45:00,
2015-07-04 11:50:00,84.8,79.1,29.96,SSW,199,11.5,11.5,83,0.00,CLR,SKC,0.00,854.0,WeatherDisplay:10.37,2015-07-04 16:50:00,
2015-07-04 11:55:00,85.3,78.8,29.96,SSE,159,15.0,15.0,81,0.00,CLR,SKC,0.00,837.0,WeatherDisplay:10.37,2015-07-04 16:55:00,
2015-07-04 12:00:00,84.8,78.3,29.96,SE,144,18.4,18.4,81,0.00,CLR,SKC,0.00,835.0,WeatherDisplay:10.37,2015-07-04 17:00:00,
2015-07-04 12:05:00,84.6,78.5,29.96,SSE,155,15.0,15.0,82,0.00,CLR,SKC,0.00,842.0,WeatherDisplay:10.37,2015-07-04 17:05:00,
2015-07-04 12:10:00,84.9,79.2,29.96,SSE,157,12.0,12.0,83,0.00,CLR,SKC,0.00,847.0,WeatherDisplay:10.37,2015-07-04 17:10:00,
2015-07-04 12:15:00,84.7,78.2,29.96,SSE,165,17.3,17.3,81,0.00,CLR,SKC,0.00,847.0,WeatherDisplay:10.37,2015-07-04 17:15:00,
2015-07-04 12:20:00,85.0,78.5,29.96,South,183,13.8,13.8,81,0.00,CLR,SKC,0.00,849.0,WeatherDisplay:10.37,2015-07-04 17:20:00,
2015-07-04 12:25:00,85.4,78.5,29.96,SSE,150,17.0,17.0,80,0.00,CLR,SKC,0.00,826.0,WeatherDisplay:10.37,2015-07-04 17:25:00,
2015-07-04 12:30:00,85.0,78.9,29.96,SSE,165,17.3,17.3,82,0.00,CLR,SKC,0.00,849.0,WeatherDisplay:10.37,2015-07-04 17:30:00,
2015-07-04 12:35:00,85.1,78.6,29.96,SSE,150,17.3,17.3,81,0.00,CLR,SKC,0.00,840.0,WeatherDisplay:10.37,2015-07-04 17:35:00,
2015-07-04 12:40:00,85.1,78.6,29.96,South,171,13.8,13.8,81,0.00,CLR,SKC,0.00,840.0,WeatherDisplay:10.37,2015-07-04 17:40:00,
2015-07-04 12:45:00,85.0,78.5,29.96,SSE,163,16.1,16.1,81,0.00,CLR,SKC,0.00,881.0,WeatherDisplay:10.37,2015-07-04 17:45:00,
2015-07-04 12:50:00,85.6,79.1,29.96,SE,142,15.0,15.0,81,0.00,CLR,SKC,0.00,877.0,WeatherDisplay:10.37,2015-07-04 17:50:00,
2015-07-04 12:55:00,85.9,78.6,29.96,South,174,20.7,20.7,79,0.00,CLR,SKC,0.00,884.0,WeatherDisplay:10.37,2015-07-04 17:55:00,
2015-07-04 13:00:00,85.8,78.5,29.96,SE,132,16.1,16.1,79,0.00,CLR,SKC,0.00,902.0,WeatherDisplay:10.37,2015-07-04 18:00:00,
2015-07-04 13:05:00,85.4,78.9,29.96,SE,128,13.8,13.8,81,0.00,CLR,SKC,0.00,898.0,WeatherDisplay:10.37,2015-07-04 18:05:00,
2015-07-04 13:10:00,85.7,79.2,29.96,SSE,155,15.0,15.0,81,0.00,CLR,SKC,0.00,900.0,WeatherDisplay:10.37,2015-07-04 18:10:00,
2015-07-04 13:15:00,85.9,79.0,29.96,South,183,13.8,13.8,80,0.00,CLR,SKC,0.00,902.0,WeatherDisplay:10.37,2015-07-04 18:15:00,
2015-07-04 13:20:00,86.1,78.4,29.96,SSE,157,19.6,19.6,78,0.00,CLR,SKC,0.00,911.0,WeatherDisplay:10.37,2015-07-04 18:20:00,
2015-07-04 13:25:00,85.9,78.6,29.96,SSE,163,21.0,21.0,79,0.00,CLR,SKC,0.00,918.0,WeatherDisplay:10.37,2015-07-04 18:25:00,
2015-07-04 13:30:00,85.6,78.7,29.96,SSE,157,17.0,17.0,80,0.00,CLR,SKC,0.00,918.0,WeatherDisplay:10.37,2015-07-04 18:30:00,
2015-07-04 13:35:00,85.2,78.7,29.96,South,171,20.7,20.7,81,0.00,CLR,SKC,0.00,919.0,WeatherDisplay:10.37,2015-07-04 18:35:00,
2015-07-04 13:40:00,85.4,78.5,29.96,South,184,19.6,19.6,80,0.00,CLR,SKC,0.00,916.0,WeatherDisplay:10.37,2015-07-04 18:40:00,
2015-07-04 13:45:00,85.1,78.6,29.96,South,175,15.0,15.0,81,0.00,CLR,SKC,0.00,912.0,WeatherDisplay:10.37,2015-07-04 18:45:00,
2015-07-04 13:50:00,85.9,79.0,29.96,South,175,15.0,15.0,80,0.00,CLR,SKC,0.00,912.0,WeatherDisplay:10.37,2015-07-04 18:50:00,
2015-07-04 13:55:00,86.5,79.2,29.96,South,178,13.8,13.8,79,0.00,CLR,SKC,0.00,914.0,WeatherDisplay:10.37,2015-07-04 18:55:00,
2015-07-04 14:00:00,86.3,79.0,29.96,SSW,201,11.5,11.5,79,0.00,CLR,SKC,0.00,914.0,WeatherDisplay:10.37,2015-07-04 19:00:00,
2015-07-04 14:05:00,86.0,78.7,29.96,SSE,147,17.3,17.3,79,0.00,CLR,SKC,0.00,916.0,WeatherDisplay:10.37,2015-07-04 19:05:00,
2015-07-04 14:10:00,85.4,78.9,29.96,SSE,148,16.0,16.0,81,0.00,CLR,SKC,0.00,923.0,WeatherDisplay:10.37,2015-07-04 19:10:00,
2015-07-04 14:15:00,85.6,79.1,29.96,South,177,15.0,15.0,81,0.00,CLR,SKC,0.00,893.0,WeatherDisplay:10.37,2015-07-04 19:15:00,
2015-07-04 14:20:00,85.2,78.7,29.96,South,182,17.3,17.3,81,0.00,CLR,SKC,0.00,898.0,WeatherDisplay:10.37,2015-07-04 19:20:00,
2015-07-04 14:25:00,85.5,79.0,29.95,SSE,161,13.8,13.8,81,0.00,CLR,SKC,0.00,904.0,WeatherDisplay:10.37,2015-07-04 19:25:00,
2015-07-04 14:30:00,85.5,79.0,29.95,SSE,168,15.0,15.0,81,0.00,CLR,SKC,0.00,886.0,WeatherDisplay:10.37,2015-07-04 19:30:00,
2015-07-04 14:35:00,85.8,79.3,29.95,SE,136,10.4,10.4,81,0.00,CLR,SKC,0.00,895.0,WeatherDisplay:10.37,2015-07-04 19:35:00,
2015-07-04 14:40:00,86.2,78.9,29.95,SE,141,19.6,19.6,79,0.00,CLR,SKC,0.00,893.0,WeatherDisplay:10.37,2015-07-04 19:40:00,
2015-07-04 14:45:00,85.8,78.9,29.95,South,178,18.4,18.4,80,0.00,CLR,SKC,0.00,893.0,WeatherDisplay:10.37,2015-07-04 19:45:00,
2015-07-04 14:50:00,85.3,78.4,29.95,SSE,161,19.6,19.6,80,0.00,CLR,SKC,0.00,865.0,WeatherDisplay:10.37,2015-07-04 19:50:00,
2015-07-04 14:55:00,84.9,78.4,29.95,ESE,115,19.6,19.6,81,0.00,CLR,SKC,0.00,865.0,WeatherDisplay:10.37,2015-07-04 19:55:00,
2015-07-04 15:00:00,85.1,79.0,29.95,SE,140,18.4,18.4,82,0.00,CLR,SKC,0.00,877.0,WeatherDisplay:10.37,2015-07-04 20:00:00,
2015-07-04 15:05:00,86.0,79.1,29.95,South,183,15.0,15.0,80,0.00,CLR,SKC,0.00,896.0,WeatherDisplay:10.37,2015-07-04 20:05:00,
2015-07-04 15:10:00,86.1,79.2,29.95,SE,140,19.6,19.6,80,0.00,CLR,SKC,0.00,816.0,WeatherDisplay:10.37,2015-07-04 20:10:00,
2015-07-04 15:15:00,86.2,79.3,29.95,South,170,16.1,16.1,80,0.00,CLR,SKC,0.00,844.0,WeatherDisplay:10.37,2015-07-04 20:15:00,
2015-07-04 15:20:00,86.2,79.3,29.95,SSE,159,16.1,16.1,80,0.00,CLR,SKC,0.00,840.0,WeatherDisplay:10.37,2015-07-04 20:20:00,
2015-07-04 15:25:00,86.1,79.2,29.94,SE,141,16.1,16.1,80,0.00,CLR,SKC,0.00,844.0,WeatherDisplay:10.37,2015-07-04 20:25:00,
2015-07-04 15:30:00,85.9,79.0,29.94,SE,144,15.0,15.0,80,0.00,CLR,SKC,0.00,838.0,WeatherDisplay:10.37,2015-07-04 20:30:00,
2015-07-04 15:35:00,86.3,79.4,29.94,SSE,155,18.4,18.4,80,0.00,CLR,SKC,0.00,833.0,WeatherDisplay:10.37,2015-07-04 20:35:00,
2015-07-04 15:40:00,85.9,79.4,29.94,South,171,17.3,17.3,81,0.00,CLR,SKC,0.00,779.0,WeatherDisplay:10.37,2015-07-04 20:40:00,
2015-07-04 15:45:00,85.5,79.0,29.94,South,185,15.0,15.0,81,0.00,CLR,SKC,0.00,668.0,WeatherDisplay:10.37,2015-07-04 20:45:00,